APL Norway — A8NC4 — position and weather

sailwx.info

Track history (hours):
 
Tides and Currents Weather Stations Pressure Air Temp Water Temp Dewpoint Dewpoint Depression Visibility Wind Speed Wind Dir Waves Ship Positions

APL Norway

Last reported at 2014-Dec-16 21:33 UTC. Time now 2014-Dec-20 17:54 UTC.
Position N 22°50' E 120°01'.

Length 295 m; draft 11.8 m.

Type: Cargo ship. MMSI: 636013456.

Date/timePositionNaut miles runAvg speedWind from/ knotsBaromVisibWave heightAir tempDewpointWater temp
2014-Dec-16 21:33N 22°50' E 120°01'1817.7
2014-Dec-16 20:33N 22°35' E 120°12'7 6.9
2014-Dec-16 19:33N 22°34' E 120°19'0 0.0
2014-Dec-16 18:31N 22°34' E 120°19'0 0.0
2014-Dec-16 17:31N 22°34' E 120°19'0 0.0
2014-Dec-16 16:31N 22°34' E 120°19'0 0.0
2014-Dec-16 15:31N 22°34' E 120°19'0 0.0
2014-Dec-16 14:31N 22°34' E 120°19'0 0.0
2014-Dec-16 13:25N 22°34' E 120°19'0 0.0
2014-Dec-16 12:31N 22°34' E 120°19'0 0.0
2014-Dec-16 11:31N 22°34' E 120°19'0 0.0
2014-Dec-16 10:25N 22°34' E 120°19'0 0.0
2014-Dec-16 09:31N 22°34' E 120°19'0 0.0
2014-Dec-16 08:31N 22°34' E 120°19'0 0.0
2014-Dec-16 07:31N 22°34' E 120°19'0 0.0
2014-Dec-16 06:25N 22°34' E 120°19'0 0.0
2014-Dec-16 05:25N 22°34' E 120°19'2 2.3
2014-Dec-16 04:33N 22°33' E 120°17'8 7.4
2014-Dec-16 03:32N 22°29' E 120°10'3 2.6
2014-Dec-16 02:17N 22°31' E 120°09'2 1.8
2014-Dec-16 01:24N 22°33' E 120°08'1210.3
2014-Dec-16 00:16N 22°30' E 119°56'912.2
2014-Dec-15 23:31N 22°29' E 119°46'4711.9
2014-Dec-15 19:33N 22°25' E 118°55'1412.1
2014-Dec-15 18:24N 22°23' E 118°40'1012.0
2014-Dec-15 17:33N 22°22' E 118°30'1512.3
2014-Dec-15 16:19N 22°22' E 118°13'1112.2
2014-Dec-15 15:24N 22°21' E 118°01'1012.1
2014-Dec-15 14:33N 22°21' E 117°50'1212.2
2014-Dec-15 13:33N 22°22' E 117°37'1312.2
2014-Dec-15 12:31N 22°19' E 117°24'1212.2
2014-Dec-15 11:32N 22°19' E 117°11'1612.4
2014-Dec-15 10:12N 22°19' E 116°53'14711.6
2014-Dec-14 21:33N 22°07' E 114°15'1110.6
2014-Dec-14 20:33N 22°15' E 114°07'1110.3
2014-Dec-14 19:29N 22°21' E 113°57'8 8.7
2014-Dec-14 18:33N 22°28' E 113°53'0 0.2
2014-Dec-14 17:28N 22°28' E 113°53'0 0.0
2014-Dec-14 16:22N 22°28' E 113°53'0 0.0
2014-Dec-14 15:28N 22°28' E 113°53'0 0.0
2014-Dec-14 14:28N 22°28' E 113°53'0 0.0
2014-Dec-14 13:28N 22°28' E 113°53'0 0.0
2014-Dec-14 12:16N 22°28' E 113°53'0 0.0
2014-Dec-14 11:28N 22°28' E 113°53'0 0.0
2014-Dec-14 10:28N 22°28' E 113°53'0 0.0
2014-Dec-14 09:28N 22°28' E 113°53'0 0.0
2014-Dec-14 08:28N 22°28' E 113°53'0 0.0
2014-Dec-14 07:22N 22°28' E 113°53'0 0.0
2014-Dec-14 06:28N 22°28' E 113°53'0 0.0
2014-Dec-14 05:32N 22°28' E 113°53'4 3.9
2014-Dec-14 04:33N 22°24' E 113°54'8 8.0
2014-Dec-14 03:31N 22°21' E 114°02'1310.1
2014-Dec-14 02:11N 22°11' E 114°12'  
2014-Dec-10 23:33N 01°16' E 104°08'1515.2
2014-Dec-10 22:33N 01°13' E 103°53'4 4.0
2014-Dec-10 21:30N 01°16' E 103°50'0 0.0
2014-Dec-10 20:27N 01°16' E 103°50'0 0.0
2014-Dec-10 19:18N 01°16' E 103°50'0 0.0
2014-Dec-10 18:33N 01°16' E 103°50'0 0.1
2014-Dec-10 17:27N 01°16' E 103°50'0 0.1
2014-Dec-10 16:27N 01°16' E 103°50'0 0.0
2014-Dec-10 15:27N 01°16' E 103°50'0 0.0
2014-Dec-10 14:33N 01°16' E 103°50'0 0.0
2014-Dec-10 13:30N 01°16' E 103°50'0 0.0
2014-Dec-10 07:30N 01°16' E 103°50'0 0.1
2014-Dec-10 06:21N 01°16' E 103°50'0 0.0
2014-Dec-10 05:33N 01°16' E 103°50'0 0.1
2014-Dec-10 04:33N 01°16' E 103°50'0 0.1
2014-Dec-10 03:30N 01°16' E 103°50'0 0.0
2014-Dec-10 02:06N 01°16' E 103°50'0 0.0
2014-Dec-10 01:33N 01°16' E 103°50'0 0.1
2014-Dec-10 00:27N 01°16' E 103°50'0 0.0
2014-Dec-09 23:21N 01°16' E 103°50'0 0.0
2014-Dec-09 22:30N 01°16' E 103°50'0 0.0
2014-Dec-09 20:27N 01°16' E 103°50'0 0.1
2014-Dec-09 19:24N 01°16' E 103°50'0 0.0
2014-Dec-09 18:30N 01°16' E 103°50'0 0.0
2014-Dec-09 17:24N 01°16' E 103°50'0 0.1
2014-Dec-09 16:27N 01°16' E 103°50'0 0.0
2014-Dec-09 15:30N 01°16' E 103°50'0 0.1
2014-Dec-09 14:30N 01°16' E 103°50'0 0.0
2014-Dec-09 13:24N 01°16' E 103°50'0 0.0
2014-Dec-09 10:33N 01°16' E 103°50'0 0.0
2014-Dec-09 09:30N 01°16' E 103°50'0 0.0
2014-Dec-09 08:27N 01°16' E 103°50'0 0.0
2014-Dec-09 07:30N 01°16' E 103°50'0 0.0
2014-Dec-09 06:27N 01°16' E 103°50'0 0.0
2014-Dec-09 05:30N 01°16' E 103°50'0 0.1
2014-Dec-09 04:33N 01°16' E 103°50'0 0.1
2014-Dec-09 03:24N 01°16' E 103°50'0 0.0
2014-Dec-09 02:30N 01°16' E 103°50'0 0.0
2014-Dec-09 01:30N 01°16' E 103°50'0 0.1
2014-Dec-09 00:30N 01°16' E 103°50'0 0.1
2014-Dec-08 23:33N 01°16' E 103°50'2 1.5
2014-Dec-08 22:33N 01°15' E 103°51'6 5.9
2014-Dec-08 21:33N 01°14' E 103°57'1211.8
2014-Dec-08 20:33N 01°16' E 104°09'  
Track history (hours):
 
Tides and Currents Weather Stations Pressure Air Temp Water Temp Dewpoint Dewpoint Depression Visibility Wind Speed Wind Dir Waves Ship Positions

APL Norway

Last reported at 2014-Dec-16 21:33 UTC. Time now 2014-Dec-20 17:54 UTC.
Position N 22°50' E 120°01'.

Length 295 m; draft 11.8 m.

Type: Cargo ship. MMSI: 636013456.

Date/timePositionNaut miles runAvg speedWind from/ knotsBaromVisibWave heightAir tempDewpointWater temp
2014-Dec-16 21:33N 22°50' E 120°01'1817.7
2014-Dec-16 20:33N 22°35' E 120°12'7 6.9
2014-Dec-16 19:33N 22°34' E 120°19'0 0.0
2014-Dec-16 18:31N 22°34' E 120°19'0 0.0
2014-Dec-16 17:31N 22°34' E 120°19'0 0.0
2014-Dec-16 16:31N 22°34' E 120°19'0 0.0
2014-Dec-16 15:31N 22°34' E 120°19'0 0.0
2014-Dec-16 14:31N 22°34' E 120°19'0 0.0
2014-Dec-16 13:25N 22°34' E 120°19'0 0.0
2014-Dec-16 12:31N 22°34' E 120°19'0 0.0
2014-Dec-16 11:31N 22°34' E 120°19'0 0.0
2014-Dec-16 10:25N 22°34' E 120°19'0 0.0
2014-Dec-16 09:31N 22°34' E 120°19'0 0.0
2014-Dec-16 08:31N 22°34' E 120°19'0 0.0
2014-Dec-16 07:31N 22°34' E 120°19'0 0.0
2014-Dec-16 06:25N 22°34' E 120°19'0 0.0
2014-Dec-16 05:25N 22°34' E 120°19'2 2.3
2014-Dec-16 04:33N 22°33' E 120°17'8 7.4
2014-Dec-16 03:32N 22°29' E 120°10'3 2.6
2014-Dec-16 02:17N 22°31' E 120°09'2 1.8
2014-Dec-16 01:24N 22°33' E 120°08'1210.3
2014-Dec-16 00:16N 22°30' E 119°56'912.2
2014-Dec-15 23:31N 22°29' E 119°46'4711.9
2014-Dec-15 19:33N 22°25' E 118°55'1412.1
2014-Dec-15 18:24N 22°23' E 118°40'1012.0
2014-Dec-15 17:33N 22°22' E 118°30'1512.3
2014-Dec-15 16:19N 22°22' E 118°13'1112.2
2014-Dec-15 15:24N 22°21' E 118°01'1012.1
2014-Dec-15 14:33N 22°21' E 117°50'1212.2
2014-Dec-15 13:33N 22°22' E 117°37'1312.2
2014-Dec-15 12:31N 22°19' E 117°24'1212.2
2014-Dec-15 11:32N 22°19' E 117°11'1612.4
2014-Dec-15 10:12N 22°19' E 116°53'14711.6
2014-Dec-14 21:33N 22°07' E 114°15'1110.6
2014-Dec-14 20:33N 22°15' E 114°07'1110.3
2014-Dec-14 19:29N 22°21' E 113°57'8 8.7
2014-Dec-14 18:33N 22°28' E 113°53'0 0.2
2014-Dec-14 17:28N 22°28' E 113°53'0 0.0
2014-Dec-14 16:22N 22°28' E 113°53'0 0.0
2014-Dec-14 15:28N 22°28' E 113°53'0 0.0
2014-Dec-14 14:28N 22°28' E 113°53'0 0.0
2014-Dec-14 13:28N 22°28' E 113°53'0 0.0
2014-Dec-14 12:16N 22°28' E 113°53'0 0.0
2014-Dec-14 11:28N 22°28' E 113°53'0 0.0
2014-Dec-14 10:28N 22°28' E 113°53'0 0.0
2014-Dec-14 09:28N 22°28' E 113°53'0 0.0
2014-Dec-14 08:28N 22°28' E 113°53'0 0.0
2014-Dec-14 07:22N 22°28' E 113°53'0 0.0
2014-Dec-14 06:28N 22°28' E 113°53'0 0.0
2014-Dec-14 05:32N 22°28' E 113°53'4 3.9
2014-Dec-14 04:33N 22°24' E 113°54'8 8.0
2014-Dec-14 03:31N 22°21' E 114°02'1310.1
2014-Dec-14 02:11N 22°11' E 114°12'  
2014-Dec-10 23:33N 01°16' E 104°08'1515.2
2014-Dec-10 22:33N 01°13' E 103°53'4 4.0
2014-Dec-10 21:30N 01°16' E 103°50'0 0.0
2014-Dec-10 20:27N 01°16' E 103°50'0 0.0
2014-Dec-10 19:18N 01°16' E 103°50'0 0.0
2014-Dec-10 18:33N 01°16' E 103°50'0 0.1
2014-Dec-10 17:27N 01°16' E 103°50'0 0.1
2014-Dec-10 16:27N 01°16' E 103°50'0 0.0
2014-Dec-10 15:27N 01°16' E 103°50'0 0.0
2014-Dec-10 14:33N 01°16' E 103°50'0 0.0
2014-Dec-10 13:30N 01°16' E 103°50'0 0.0
2014-Dec-10 07:30N 01°16' E 103°50'0 0.1
2014-Dec-10 06:21N 01°16' E 103°50'0 0.0
2014-Dec-10 05:33N 01°16' E 103°50'0 0.1
2014-Dec-10 04:33N 01°16' E 103°50'0 0.1
2014-Dec-10 03:30N 01°16' E 103°50'0 0.0
2014-Dec-10 02:06N 01°16' E 103°50'0 0.0
2014-Dec-10 01:33N 01°16' E 103°50'0 0.1
2014-Dec-10 00:27N 01°16' E 103°50'0 0.0
2014-Dec-09 23:21N 01°16' E 103°50'0 0.0
2014-Dec-09 22:30N 01°16' E 103°50'0 0.0
2014-Dec-09 20:27N 01°16' E 103°50'0 0.1
2014-Dec-09 19:24N 01°16' E 103°50'0 0.0
2014-Dec-09 18:30N 01°16' E 103°50'0 0.0
2014-Dec-09 17:24N 01°16' E 103°50'0 0.1
2014-Dec-09 16:27N 01°16' E 103°50'0 0.0
2014-Dec-09 15:30N 01°16' E 103°50'0 0.1
2014-Dec-09 14:30N 01°16' E 103°50'0 0.0
2014-Dec-09 13:24N 01°16' E 103°50'0 0.0
2014-Dec-09 10:33N 01°16' E 103°50'0 0.0
2014-Dec-09 09:30N 01°16' E 103°50'0 0.0
2014-Dec-09 08:27N 01°16' E 103°50'0 0.0
2014-Dec-09 07:30N 01°16' E 103°50'0 0.0
2014-Dec-09 06:27N 01°16' E 103°50'0 0.0
2014-Dec-09 05:30N 01°16' E 103°50'0 0.1
2014-Dec-09 04:33N 01°16' E 103°50'0 0.1
2014-Dec-09 03:24N 01°16' E 103°50'0 0.0
2014-Dec-09 02:30N 01°16' E 103°50'0 0.0
2014-Dec-09 01:30N 01°16' E 103°50'0 0.1
2014-Dec-09 00:30N 01°16' E 103°50'0 0.1
2014-Dec-08 23:33N 01°16' E 103°50'2 1.5
2014-Dec-08 22:33N 01°15' E 103°51'6 5.9
2014-Dec-08 21:33N 01°14' E 103°57'1211.8
2014-Dec-08 20:33N 01°16' E 104°09'  

Dump ship's entire track history